WADD/DPS METAR and TAF weather

Enter ICAO airport designator
Station Type Date Time Source
WADD METAR 2019/05/25 09:30 UTC NOAA

WADD 250930Z 11014KT 9999 FEW017 28/24 Q1009 NOSIG


Station Type Date Time Source
WADD Decoded METAR 2019/05/25 09:30 UTC NOAA

Station name not available
May 25, 2019 - 05:30 AM EDT / 2019.05.25 0930 UTC
Wind: from the ESE (110 degrees) at 16 MPH (14 KT):0
Visibility: greater than 7 mile(s):0
Sky conditions: mostly clear
Temperature: 82 F (28 C)
Dew Point: 75 F (24 C)
Relative Humidity: 78%
Pressure (altimeter): 29.80 in. Hg (1009 hPa)
ob: WADD 250930Z 11014KT 9999 FEW017 28/24 Q1009 NOSIG
cycle: 9

Station Type Date Time Source
WADD TAF 2019/05/25 06:06 UTC NOAA

TAF WADD 250500Z 2506/2606 11012KT 9999 SCT017
TEMPO 2520/2600 VRB05KT

Example: see airport list